sensor_id;sensor_type;location;lat;lon;timestamp;temperature;humidity
27803;DHT22;15182;48.174;11.562;2023-01-25T00:01:34;6.50;99.90
27803;DHT22;15182;48.174;11.562;2023-01-25T00:04:06;6.50;99.90
27803;DHT22;15182;48.174;11.562;2023-01-25T00:06:37;6.50;99.90
27803;DHT22;15182;48.174;11.562;2023-01-25T00:09:08;6.50;99.90
27803;DHT22;15182;48.174;11.562;2023-01-25T00:11:41;6.50;99.90
27803;DHT22;15182;48.174;11.562;2023-01-25T00:14:14;6.50;99.90
27803;DHT22;15182;48.174;11.562;2023-01-25T00:16:45;6.50;99.90
27803;DHT22;15182;48.174;11.562;2023-01-25T00:19:17;6.50;99.90
27803;DHT22;15182;48.174;11.562;2023-01-25T00:21:49;6.50;99.90
27803;DHT22;15182;48.174;11.562;2023-01-25T00:24:20;6.50;99.90
27803;DHT22;15182;48.174;11.562;2023-01-25T00:26:52;6.50;99.90
27803;DHT22;15182;48.174;11.562;2023-01-25T00:29:25;6.50;99.90
27803;DHT22;15182;48.174;11.562;2023-01-25T00:32:07;6.50;99.90
27803;DHT22;15182;48.174;11.562;2023-01-25T00:34:58;6.50;99.90
27803;DHT22;15182;48.174;11.562;2023-01-25T00:37:34;6.50;99.90
27803;DHT22;15182;48.174;11.562;2023-01-25T00:40:08;6.50;99.90
27803;DHT22;15182;48.174;11.562;2023-01-25T00:42:41;6.50;99.90
27803;DHT22;15182;48.174;11.562;2023-01-25T00:45:14;6.50;99.90
27803;DHT22;15182;48.174;11.562;2023-01-25T00:47:46;6.50;99.90
27803;DHT22;15182;48.174;11.562;2023-01-25T00:50:17;6.40;99.90
27803;DHT22;15182;48.174;11.562;2023-01-25T00:52:48;6.40;99.90
27803;DHT22;15182;48.174;11.562;2023-01-25T00:55:20;6.40;99.90
27803;DHT22;15182;48.174;11.562;2023-01-25T00:57:51;6.40;99.90
27803;DHT22;15182;48.174;11.562;2023-01-25T01:00:24;6.40;99.90
27803;DHT22;15182;48.174;11.562;2023-01-25T01:02:56;6.40;99.90
27803;DHT22;15182;48.174;11.562;2023-01-25T01:05:27;6.40;99.90
27803;DHT22;15182;48.174;11.562;2023-01-25T01:07:58;6.40;99.90
27803;DHT22;15182;48.174;11.562;2023-01-25T01:10:30;6.40;99.90
27803;DHT22;15182;48.174;11.562;2023-01-25T01:13:01;6.40;99.90
27803;DHT22;15182;48.174;11.562;2023-01-25T01:15:36;6.40;99.90
27803;DHT22;15182;48.174;11.562;2023-01-25T01:18:08;6.40;99.90
27803;DHT22;15182;48.174;11.562;2023-01-25T01:20:39;6.30;99.90
27803;DHT22;15182;48.174;11.562;2023-01-25T01:23:12;6.30;99.90
27803;DHT22;15182;48.174;11.562;2023-01-25T01:25:44;6.30;99.90
27803;DHT22;15182;48.174;11.562;2023-01-25T01:28:15;6.30;99.90
27803;DHT22;15182;48.174;11.562;2023-01-25T01:30:47;6.30;99.90
27803;DHT22;15182;48.174;11.562;2023-01-25T01:33:19;6.30;99.90
27803;DHT22;15182;48.174;11.562;2023-01-25T01:35:50;6.30;99.90
27803;DHT22;15182;48.174;11.562;2023-01-25T01:38:21;6.30;99.90
27803;DHT22;15182;48.174;11.562;2023-01-25T01:40:52;6.20;99.90
27803;DHT22;15182;48.174;11.562;2023-01-25T01:43:25;6.20;99.90
27803;DHT22;15182;48.174;11.562;2023-01-25T01:46:02;6.20;99.90
27803;DHT22;15182;48.174;11.562;2023-01-25T01:48:39;6.20;99.90
27803;DHT22;15182;48.174;11.562;2023-01-25T01:51:15;6.20;99.90
27803;DHT22;15182;48.174;11.562;2023-01-25T01:53:49;6.20;99.90
27803;DHT22;15182;48.174;11.562;2023-01-25T01:56:31;6.20;99.90
27803;DHT22;15182;48.174;11.562;2023-01-25T01:59:06;6.20;99.90
27803;DHT22;15182;48.174;11.562;2023-01-25T02:01:40;6.20;99.90
27803;DHT22;15182;48.174;11.562;2023-01-25T02:04:12;6.20;99.90
27803;DHT22;15182;48.174;11.562;2023-01-25T02:06:49;6.20;99.90
27803;DHT22;15182;48.174;11.562;2023-01-25T02:09:26;6.20;99.90
27803;DHT22;15182;48.174;11.562;2023-01-25T02:12:01;6.20;99.90
27803;DHT22;15182;48.174;11.562;2023-01-25T02:14:34;6.20;99.90
27803;DHT22;15182;48.174;11.562;2023-01-25T02:17:11;6.20;99.90
27803;DHT22;15182;48.174;11.562;2023-01-25T02:19:51;6.20;99.90
27803;DHT22;15182;48.174;11.562;2023-01-25T02:22:29;6.20;99.90
27803;DHT22;15182;48.174;11.562;2023-01-25T02:25:14;6.10;99.90
27803;DHT22;15182;48.174;11.562;2023-01-25T02:27:50;6.10;99.90
27803;DHT22;15182;48.174;11.562;2023-01-25T02:30:24;6.10;99.90
27803;DHT22;15182;48.174;11.562;2023-01-25T02:32:55;6.10;99.90
27803;DHT22;15182;48.174;11.562;2023-01-25T02:35:37;6.10;99.90
27803;DHT22;15182;48.174;11.562;2023-01-25T02:38:14;6.10;99.90
27803;DHT22;15182;48.174;11.562;2023-01-25T02:40:51;6.10;99.90
27803;DHT22;15182;48.174;11.562;2023-01-25T02:43:22;6.10;99.90
27803;DHT22;15182;48.174;11.562;2023-01-25T02:46:02;6.10;99.90
27803;DHT22;15182;48.174;11.562;2023-01-25T02:48:40;6.10;99.90
27803;DHT22;15182;48.174;11.562;2023-01-25T02:51:13;6.10;99.90
27803;DHT22;15182;48.174;11.562;2023-01-25T02:53:45;6.10;99.90
27803;DHT22;15182;48.174;11.562;2023-01-25T02:56:19;6.10;99.90
27803;DHT22;15182;48.174;11.562;2023-01-25T02:58:51;6.20;99.90
27803;DHT22;15182;48.174;11.562;2023-01-25T03:01:22;6.20;99.90
27803;DHT22;15182;48.174;11.562;2023-01-25T03:03:55;6.20;99.90
27803;DHT22;15182;48.174;11.562;2023-01-25T03:06:27;6.20;99.90
27803;DHT22;15182;48.174;11.562;2023-01-25T03:08:59;6.20;99.90
27803;DHT22;15182;48.174;11.562;2023-01-25T03:11:34;6.20;99.90
27803;DHT22;15182;48.174;11.562;2023-01-25T03:14:06;6.20;99.90
27803;DHT22;15182;48.174;11.562;2023-01-25T03:16:37;6.10;99.90
27803;DHT22;15182;48.174;11.562;2023-01-25T03:19:09;6.10;99.90
27803;DHT22;15182;48.174;11.562;2023-01-25T03:21:41;6.10;99.90
27803;DHT22;15182;48.174;11.562;2023-01-25T03:24:13;6.10;99.90
27803;DHT22;15182;48.174;11.562;2023-01-25T03:26:50;6.10;99.90
27803;DHT22;15182;48.174;11.562;2023-01-25T03:30:05;6.20;99.90
27803;DHT22;15182;48.174;11.562;2023-01-25T03:32:37;6.20;99.90
27803;DHT22;15182;48.174;11.562;2023-01-25T03:35:12;6.20;99.90
27803;DHT22;15182;48.174;11.562;2023-01-25T03:37:44;6.20;99.90
27803;DHT22;15182;48.174;11.562;2023-01-25T03:40:15;6.20;99.90
27803;DHT22;15182;48.174;11.562;2023-01-25T03:42:52;6.20;99.90
27803;DHT22;15182;48.174;11.562;2023-01-25T03:45:23;6.10;99.90
27803;DHT22;15182;48.174;11.562;2023-01-25T03:47:55;6.10;99.90
27803;DHT22;15182;48.174;11.562;2023-01-25T03:50:27;6.10;99.90
27803;DHT22;15182;48.174;11.562;2023-01-25T03:53:15;6.10;99.90
27803;DHT22;15182;48.174;11.562;2023-01-25T03:58:49;6.10;99.90
27803;DHT22;15182;48.174;11.562;2023-01-25T04:01:20;6.10;99.90
27803;DHT22;15182;48.174;11.562;2023-01-25T04:03:52;6.10;99.90
27803;DHT22;15182;48.174;11.562;2023-01-25T04:06:23;6.10;99.90
27803;DHT22;15182;48.174;11.562;2023-01-25T04:08:54;6.10;99.90
27803;DHT22;15182;48.174;11.562;2023-01-25T04:11:27;6.10;99.90
27803;DHT22;15182;48.174;11.562;2023-01-25T04:14:00;6.10;99.90
27803;DHT22;15182;48.174;11.562;2023-01-25T04:16:39;6.10;99.90
27803;DHT22;15182;48.174;11.562;2023-01-25T04:19:24;6.10;99.90
27803;DHT22;15182;48.174;11.562;2023-01-25T04:21:59;6.10;99.90
27803;DHT22;15182;48.174;11.562;2023-01-25T04:24:35;6.00;99.90
27803;DHT22;15182;48.174;11.562;2023-01-25T04:27:07;6.00;99.90
27803;DHT22;15182;48.174;11.562;2023-01-25T04:29:52;6.00;99.90
27803;DHT22;15182;48.174;11.562;2023-01-25T04:32:25;6.00;99.90
27803;DHT22;15182;48.174;11.562;2023-01-25T04:34:58;6.00;99.90
27803;DHT22;15182;48.174;11.562;2023-01-25T04:37:31;6.00;99.90
27803;DHT22;15182;48.174;11.562;2023-01-25T04:40:02;6.00;99.90
27803;DHT22;15182;48.174;11.562;2023-01-25T04:42:41;6.10;99.90
27803;DHT22;15182;48.174;11.562;2023-01-25T04:45:14;6.10;99.90
27803;DHT22;15182;48.174;11.562;2023-01-25T04:47:45;6.10;99.90
27803;DHT22;15182;48.174;11.562;2023-01-25T04:50:17;6.10;99.90
27803;DHT22;15182;48.174;11.562;2023-01-25T04:52:49;6.00;99.90
27803;DHT22;15182;48.174;11.562;2023-01-25T04:55:20;6.10;99.90
27803;DHT22;15182;48.174;11.562;2023-01-25T04:57:53;6.00;99.90
27803;DHT22;15182;48.174;11.562;2023-01-25T05:00:26;6.10;99.90
27803;DHT22;15182;48.174;11.562;2023-01-25T05:03:01;6.00;99.90
27803;DHT22;15182;48.174;11.562;2023-01-25T05:05:32;6.00;99.90
27803;DHT22;15182;48.174;11.562;2023-01-25T05:08:08;6.00;99.90
27803;DHT22;15182;48.174;11.562;2023-01-25T05:10:39;6.00;99.90
27803;DHT22;15182;48.174;11.562;2023-01-25T05:13:29;6.00;99.90
27803;DHT22;15182;48.174;11.562;2023-01-25T05:16:18;6.00;99.90
27803;DHT22;15182;48.174;11.562;2023-01-25T05:18:49;6.00;99.90
27803;DHT22;15182;48.174;11.562;2023-01-25T05:21:26;6.00;99.90
27803;DHT22;15182;48.174;11.562;2023-01-25T05:24:17;6.00;99.90
27803;DHT22;15182;48.174;11.562;2023-01-25T05:26:49;6.00;99.90
27803;DHT22;15182;48.174;11.562;2023-01-25T05:29:45;6.00;99.90
27803;DHT22;15182;48.174;11.562;2023-01-25T05:32:20;6.00;99.90
27803;DHT22;15182;48.174;11.562;2023-01-25T05:34:52;6.00;99.90
27803;DHT22;15182;48.174;11.562;2023-01-25T05:37:25;6.00;99.90
27803;DHT22;15182;48.174;11.562;2023-01-25T05:40:02;6.00;99.90
27803;DHT22;15182;48.174;11.562;2023-01-25T05:42:37;6.10;99.90
27803;DHT22;15182;48.174;11.562;2023-01-25T05:45:16;6.10;99.90
27803;DHT22;15182;48.174;11.562;2023-01-25T05:47:54;6.10;99.90
27803;DHT22;15182;48.174;11.562;2023-01-25T05:50:27;6.10;99.90
27803;DHT22;15182;48.174;11.562;2023-01-25T05:53:02;6.10;99.90
27803;DHT22;15182;48.174;11.562;2023-01-25T05:55:36;6.10;99.90
27803;DHT22;15182;48.174;11.562;2023-01-25T05:58:11;6.10;99.90
27803;DHT22;15182;48.174;11.562;2023-01-25T06:00:42;6.00;99.90
27803;DHT22;15182;48.174;11.562;2023-01-25T06:03:24;6.00;99.90
27803;DHT22;15182;48.174;11.562;2023-01-25T06:05:57;6.00;99.90
27803;DHT22;15182;48.174;11.562;2023-01-25T06:08:30;6.00;99.90
27803;DHT22;15182;48.174;11.562;2023-01-25T06:11:07;6.00;99.90
27803;DHT22;15182;48.174;11.562;2023-01-25T06:13:44;6.00;99.90
27803;DHT22;15182;48.174;11.562;2023-01-25T06:16:17;6.10;99.90
27803;DHT22;15182;48.174;11.562;2023-01-25T06:19:05;6.00;99.90
27803;DHT22;15182;48.174;11.562;2023-01-25T06:21:47;6.00;99.90
27803;DHT22;15182;48.174;11.562;2023-01-25T06:24:20;6.00;99.90
27803;DHT22;15182;48.174;11.562;2023-01-25T06:26:51;6.00;99.90
27803;DHT22;15182;48.174;11.562;2023-01-25T06:29:23;6.00;99.90
27803;DHT22;15182;48.174;11.562;2023-01-25T06:31:54;6.00;99.90
27803;DHT22;15182;48.174;11.562;2023-01-25T06:34:26;6.00;99.90
27803;DHT22;15182;48.174;11.562;2023-01-25T06:36:59;6.00;99.90
27803;DHT22;15182;48.174;11.562;2023-01-25T06:39:30;6.00;99.90
27803;DHT22;15182;48.174;11.562;2023-01-25T06:42:01;6.00;99.90
27803;DHT22;15182;48.174;11.562;2023-01-25T06:44:32;6.00;99.90
27803;DHT22;15182;48.174;11.562;2023-01-25T06:47:03;6.00;99.90
27803;DHT22;15182;48.174;11.562;2023-01-25T06:49:36;6.00;99.90
27803;DHT22;15182;48.174;11.562;2023-01-25T06:52:08;6.00;99.90
27803;DHT22;15182;48.174;11.562;2023-01-25T06:54:39;6.00;99.90
27803;DHT22;15182;48.174;11.562;2023-01-25T06:57:10;6.00;99.90
27803;DHT22;15182;48.174;11.562;2023-01-25T06:59:41;6.00;99.90
27803;DHT22;15182;48.174;11.562;2023-01-25T07:02:15;6.00;99.90
27803;DHT22;15182;48.174;11.562;2023-01-25T07:04:48;6.00;99.90
27803;DHT22;15182;48.174;11.562;2023-01-25T07:07:19;6.00;99.90
27803;DHT22;15182;48.174;11.562;2023-01-25T07:09:50;6.00;99.90
27803;DHT22;15182;48.174;11.562;2023-01-25T07:12:22;6.00;99.90
27803;DHT22;15182;48.174;11.562;2023-01-25T07:14:53;6.00;99.90
27803;DHT22;15182;48.174;11.562;2023-01-25T07:17:24;6.00;99.90
27803;DHT22;15182;48.174;11.562;2023-01-25T07:19:57;5.90;99.90
27803;DHT22;15182;48.174;11.562;2023-01-25T07:22:28;5.90;99.90
27803;DHT22;15182;48.174;11.562;2023-01-25T07:24:59;5.90;99.90
27803;DHT22;15182;48.174;11.562;2023-01-25T07:27:33;5.90;99.90
27803;DHT22;15182;48.174;11.562;2023-01-25T07:30:06;5.90;99.90
27803;DHT22;15182;48.174;11.562;2023-01-25T07:32:38;5.90;99.90
27803;DHT22;15182;48.174;11.562;2023-01-25T07:35:11;5.90;99.90
27803;DHT22;15182;48.174;11.562;2023-01-25T07:37:43;5.80;99.90
27803;DHT22;15182;48.174;11.562;2023-01-25T07:40:15;5.80;99.90
27803;DHT22;15182;48.174;11.562;2023-01-25T07:42:46;5.80;99.90
27803;DHT22;15182;48.174;11.562;2023-01-25T07:45:19;5.80;99.90
27803;DHT22;15182;48.174;11.562;2023-01-25T07:47:55;5.80;99.90
27803;DHT22;15182;48.174;11.562;2023-01-25T07:50:29;5.90;99.90
27803;DHT22;15182;48.174;11.562;2023-01-25T07:53:00;5.80;99.90
27803;DHT22;15182;48.174;11.562;2023-01-25T07:55:31;5.90;99.90
27803;DHT22;15182;48.174;11.562;2023-01-25T07:58:03;5.90;99.90
27803;DHT22;15182;48.174;11.562;2023-01-25T08:00:34;5.90;99.90
27803;DHT22;15182;48.174;11.562;2023-01-25T08:03:05;5.90;99.90
27803;DHT22;15182;48.174;11.562;2023-01-25T08:05:38;5.90;99.90
27803;DHT22;15182;48.174;11.562;2023-01-25T08:08:13;5.90;99.90
27803;DHT22;15182;48.174;11.562;2023-01-25T08:10:45;5.90;99.90
27803;DHT22;15182;48.174;11.562;2023-01-25T08:13:16;5.80;99.90
27803;DHT22;15182;48.174;11.562;2023-01-25T08:15:52;5.80;99.90
27803;DHT22;15182;48.174;11.562;2023-01-25T08:18:24;5.80;99.90
27803;DHT22;15182;48.174;11.562;2023-01-25T08:20:58;5.80;99.90
27803;DHT22;15182;48.174;11.562;2023-01-25T08:23:30;5.80;99.90
27803;DHT22;15182;48.174;11.562;2023-01-25T08:26:03;5.80;99.90
27803;DHT22;15182;48.174;11.562;2023-01-25T08:28:35;5.80;99.90
27803;DHT22;15182;48.174;11.562;2023-01-25T08:31:08;5.70;99.90
27803;DHT22;15182;48.174;11.562;2023-01-25T08:33:41;5.70;99.90
27803;DHT22;15182;48.174;11.562;2023-01-25T08:36:16;5.70;99.90
27803;DHT22;15182;48.174;11.562;2023-01-25T08:38:51;5.70;99.90
27803;DHT22;15182;48.174;11.562;2023-01-25T08:41:24;5.70;99.90
27803;DHT22;15182;48.174;11.562;2023-01-25T08:43:57;5.80;99.90
27803;DHT22;15182;48.174;11.562;2023-01-25T08:46:31;5.80;99.90
27803;DHT22;15182;48.174;11.562;2023-01-25T08:49:04;5.80;99.90
27803;DHT22;15182;48.174;11.562;2023-01-25T08:51:38;5.80;99.90
27803;DHT22;15182;48.174;11.562;2023-01-25T08:54:11;5.80;99.90
27803;DHT22;15182;48.174;11.562;2023-01-25T08:56:43;5.80;99.90
27803;DHT22;15182;48.174;11.562;2023-01-25T08:59:16;5.80;99.90
27803;DHT22;15182;48.174;11.562;2023-01-25T09:01:47;5.80;99.90
27803;DHT22;15182;48.174;11.562;2023-01-25T09:04:19;5.80;99.90
27803;DHT22;15182;48.174;11.562;2023-01-25T09:06:56;5.80;99.90
27803;DHT22;15182;48.174;11.562;2023-01-25T09:09:27;5.80;99.90
27803;DHT22;15182;48.174;11.562;2023-01-25T09:11:58;5.80;99.90
27803;DHT22;15182;48.174;11.562;2023-01-25T09:14:30;5.80;99.90
27803;DHT22;15182;48.174;11.562;2023-01-25T09:17:01;5.80;99.90
27803;DHT22;15182;48.174;11.562;2023-01-25T09:19:34;5.80;99.90
27803;DHT22;15182;48.174;11.562;2023-01-25T09:22:07;5.80;99.90
27803;DHT22;15182;48.174;11.562;2023-01-25T09:24:38;5.80;99.90
27803;DHT22;15182;48.174;11.562;2023-01-25T09:27:09;5.80;99.90
27803;DHT22;15182;48.174;11.562;2023-01-25T09:29:41;5.80;99.90
27803;DHT22;15182;48.174;11.562;2023-01-25T09:32:12;5.80;99.90
27803;DHT22;15182;48.174;11.562;2023-01-25T09:34:54;5.80;99.90
27803;DHT22;15182;48.174;11.562;2023-01-25T09:37:26;5.90;99.90
27803;DHT22;15182;48.174;11.562;2023-01-25T09:39:57;5.90;99.90
27803;DHT22;15182;48.174;11.562;2023-01-25T09:42:42;5.90;99.90
27803;DHT22;15182;48.174;11.562;2023-01-25T09:45:30;5.90;99.90
27803;DHT22;15182;48.174;11.562;2023-01-25T09:48:10;5.90;99.90
27803;DHT22;15182;48.174;11.562;2023-01-25T09:50:57;5.90;99.90
27803;DHT22;15182;48.174;11.562;2023-01-25T09:53:35;5.90;99.90
27803;DHT22;15182;48.174;11.562;2023-01-25T09:56:11;5.90;99.90
27803;DHT22;15182;48.174;11.562;2023-01-25T09:58:50;5.90;99.90
27803;DHT22;15182;48.174;11.562;2023-01-25T10:01:27;5.90;99.90
27803;DHT22;15182;48.174;11.562;2023-01-25T10:04:03;5.90;99.90
27803;DHT22;15182;48.174;11.562;2023-01-25T10:06:40;5.90;99.90
27803;DHT22;15182;48.174;11.562;2023-01-25T10:09:23;5.90;99.90
27803;DHT22;15182;48.174;11.562;2023-01-25T10:12:02;5.90;99.90
27803;DHT22;15182;48.174;11.562;2023-01-25T10:14:36;5.90;99.90
27803;DHT22;15182;48.174;11.562;2023-01-25T10:17:16;5.90;99.90
27803;DHT22;15182;48.174;11.562;2023-01-25T10:20:01;5.90;99.90
27803;DHT22;15182;48.174;11.562;2023-01-25T10:22:42;5.90;99.90
27803;DHT22;15182;48.174;11.562;2023-01-25T10:25:30;5.90;99.90
27803;DHT22;15182;48.174;11.562;2023-01-25T10:28:19;5.90;99.90
27803;DHT22;15182;48.174;11.562;2023-01-25T10:30:57;5.90;99.90
27803;DHT22;15182;48.174;11.562;2023-01-25T10:33:32;5.90;99.90
27803;DHT22;15182;48.174;11.562;2023-01-25T10:36:08;5.90;99.90
27803;DHT22;15182;48.174;11.562;2023-01-25T10:38:44;5.90;99.90
27803;DHT22;15182;48.174;11.562;2023-01-25T10:41:22;5.90;99.90
27803;DHT22;15182;48.174;11.562;2023-01-25T10:43:56;5.90;99.90
27803;DHT22;15182;48.174;11.562;2023-01-25T10:46:48;5.90;99.90
27803;DHT22;15182;48.174;11.562;2023-01-25T10:49:25;5.90;99.90
27803;DHT22;15182;48.174;11.562;2023-01-25T10:52:11;5.90;99.90
27803;DHT22;15182;48.174;11.562;2023-01-25T10:54:45;5.90;99.90
27803;DHT22;15182;48.174;11.562;2023-01-25T10:57:20;5.80;99.90
27803;DHT22;15182;48.174;11.562;2023-01-25T10:59:53;5.80;99.90
27803;DHT22;15182;48.174;11.562;2023-01-25T11:02:37;5.80;99.90
27803;DHT22;15182;48.174;11.562;2023-01-25T11:05:31;5.80;99.90
27803;DHT22;15182;48.174;11.562;2023-01-25T11:08:23;5.80;99.90
27803;DHT22;15182;48.174;11.562;2023-01-25T11:11:10;5.80;99.90
27803;DHT22;15182;48.174;11.562;2023-01-25T11:13:44;5.80;99.90
27803;DHT22;15182;48.174;11.562;2023-01-25T11:16:24;5.80;99.90
27803;DHT22;15182;48.174;11.562;2023-01-25T11:18:59;5.80;99.90
27803;DHT22;15182;48.174;11.562;2023-01-25T11:21:33;5.80;99.90
27803;DHT22;15182;48.174;11.562;2023-01-25T11:24:14;5.80;99.90
27803;DHT22;15182;48.174;11.562;2023-01-25T11:26:46;5.80;99.90
27803;DHT22;15182;48.174;11.562;2023-01-25T11:29:20;5.80;99.90
27803;DHT22;15182;48.174;11.562;2023-01-25T11:31:54;5.80;99.90
27803;DHT22;15182;48.174;11.562;2023-01-25T11:34:27;5.80;99.90
27803;DHT22;15182;48.174;11.562;2023-01-25T11:40:09;5.80;99.90
27803;DHT22;15182;48.174;11.562;2023-01-25T11:42:47;5.80;99.90
27803;DHT22;15182;48.174;11.562;2023-01-25T11:48:58;5.80;99.90
27803;DHT22;15182;48.174;11.562;2023-01-25T11:51:48;5.80;99.90
27803;DHT22;15182;48.174;11.562;2023-01-25T11:54:38;5.80;99.90
27803;DHT22;15182;48.174;11.562;2023-01-25T11:57:41;5.80;99.90
27803;DHT22;15182;48.174;11.562;2023-01-25T12:00:31;5.80;99.90
27803;DHT22;15182;48.174;11.562;2023-01-25T12:06:41;5.90;99.90
27803;DHT22;15182;48.174;11.562;2023-01-25T12:09:29;5.90;99.90
27803;DHT22;15182;48.174;11.562;2023-01-25T12:12:24;5.90;99.90
27803;DHT22;15182;48.174;11.562;2023-01-25T12:15:22;5.90;99.90
27803;DHT22;15182;48.174;11.562;2023-01-25T12:21:10;5.80;99.90
27803;DHT22;15182;48.174;11.562;2023-01-25T12:23:56;5.80;99.90
27803;DHT22;15182;48.174;11.562;2023-01-25T12:26:36;5.80;99.90
27803;DHT22;15182;48.174;11.562;2023-01-25T12:29:18;5.80;99.90
27803;DHT22;15182;48.174;11.562;2023-01-25T12:31:57;5.90;99.90
27803;DHT22;15182;48.174;11.562;2023-01-25T12:34:36;5.90;99.90
27803;DHT22;15182;48.174;11.562;2023-01-25T12:37:16;5.90;99.90
27803;DHT22;15182;48.174;11.562;2023-01-25T12:39:53;5.90;99.90
27803;DHT22;15182;48.174;11.562;2023-01-25T12:42:30;5.90;99.90
27803;DHT22;15182;48.174;11.562;2023-01-25T12:45:05;5.90;99.90
27803;DHT22;15182;48.174;11.562;2023-01-25T12:47:46;5.90;99.90
27803;DHT22;15182;48.174;11.562;2023-01-25T12:50:25;5.90;99.90
27803;DHT22;15182;48.174;11.562;2023-01-25T12:53:04;5.90;99.90
27803;DHT22;15182;48.174;11.562;2023-01-25T12:55:40;5.90;99.90
27803;DHT22;15182;48.174;11.562;2023-01-25T12:58:18;5.90;99.90
27803;DHT22;15182;48.174;11.562;2023-01-25T13:00:54;5.90;99.90
27803;DHT22;15182;48.174;11.562;2023-01-25T13:03:31;5.90;99.90
27803;DHT22;15182;48.174;11.562;2023-01-25T13:06:12;5.90;99.90
27803;DHT22;15182;48.174;11.562;2023-01-25T13:08:52;6.00;99.90
27803;DHT22;15182;48.174;11.562;2023-01-25T13:11:29;5.90;99.90
27803;DHT22;15182;48.174;11.562;2023-01-25T13:14:25;6.00;99.90
27803;DHT22;15182;48.174;11.562;2023-01-25T13:17:08;5.90;99.90
27803;DHT22;15182;48.174;11.562;2023-01-25T13:19:47;5.90;99.90
27803;DHT22;15182;48.174;11.562;2023-01-25T13:22:53;5.90;99.90
27803;DHT22;15182;48.174;11.562;2023-01-25T13:25:26;5.90;99.90
27803;DHT22;15182;48.174;11.562;2023-01-25T13:31:42;5.80;99.90
27803;DHT22;15182;48.174;11.562;2023-01-25T13:37:25;5.80;99.90
27803;DHT22;15182;48.174;11.562;2023-01-25T13:40:01;5.80;99.90
27803;DHT22;15182;48.174;11.562;2023-01-25T13:42:37;5.80;99.90
27803;DHT22;15182;48.174;11.562;2023-01-25T13:45:16;5.80;99.90
27803;DHT22;15182;48.174;11.562;2023-01-25T13:48:01;5.80;99.90
27803;DHT22;15182;48.174;11.562;2023-01-25T13:50:35;5.80;99.90
27803;DHT22;15182;48.174;11.562;2023-01-25T13:53:17;5.80;99.90
27803;DHT22;15182;48.174;11.562;2023-01-25T13:55:53;5.80;99.90
27803;DHT22;15182;48.174;11.562;2023-01-25T13:58:27;5.80;99.90
27803;DHT22;15182;48.174;11.562;2023-01-25T14:01:02;5.80;99.90
27803;DHT22;15182;48.174;11.562;2023-01-25T14:03:44;5.80;99.90
27803;DHT22;15182;48.174;11.562;2023-01-25T14:06:18;5.80;99.90
27803;DHT22;15182;48.174;11.562;2023-01-25T14:08:51;5.80;99.90
27803;DHT22;15182;48.174;11.562;2023-01-25T14:11:27;5.80;99.90
27803;DHT22;15182;48.174;11.562;2023-01-25T14:14:03;5.90;99.90
27803;DHT22;15182;48.174;11.562;2023-01-25T14:16:45;5.90;99.90
27803;DHT22;15182;48.174;11.562;2023-01-25T14:19:28;5.90;99.90
27803;DHT22;15182;48.174;11.562;2023-01-25T14:22:13;5.90;99.90
27803;DHT22;15182;48.174;11.562;2023-01-25T14:25:00;5.90;99.90
27803;DHT22;15182;48.174;11.562;2023-01-25T14:27:44;5.80;99.90
27803;DHT22;15182;48.174;11.562;2023-01-25T14:30:18;5.80;99.90
27803;DHT22;15182;48.174;11.562;2023-01-25T14:32:51;5.80;99.90
27803;DHT22;15182;48.174;11.562;2023-01-25T14:35:34;5.80;99.90
27803;DHT22;15182;48.174;11.562;2023-01-25T14:38:25;5.70;99.90
27803;DHT22;15182;48.174;11.562;2023-01-25T14:41:09;5.70;99.90
27803;DHT22;15182;48.174;11.562;2023-01-25T14:43:44;5.70;99.90
27803;DHT22;15182;48.174;11.562;2023-01-25T14:46:23;5.70;99.90
27803;DHT22;15182;48.174;11.562;2023-01-25T14:49:14;5.70;99.90
27803;DHT22;15182;48.174;11.562;2023-01-25T14:51:54;5.70;99.90
27803;DHT22;15182;48.174;11.562;2023-01-25T14:54:35;5.70;99.90
27803;DHT22;15182;48.174;11.562;2023-01-25T14:57:34;5.70;99.90
27803;DHT22;15182;48.174;11.562;2023-01-25T15:00:18;5.70;99.90
27803;DHT22;15182;48.174;11.562;2023-01-25T15:02:53;5.80;99.90
27803;DHT22;15182;48.174;11.562;2023-01-25T15:05:26;5.70;99.90
27803;DHT22;15182;48.174;11.562;2023-01-25T15:08:13;5.70;99.90
27803;DHT22;15182;48.174;11.562;2023-01-25T15:10:56;5.70;99.90
27803;DHT22;15182;48.174;11.562;2023-01-25T15:13:48;5.70;99.90
27803;DHT22;15182;48.174;11.562;2023-01-25T15:16:37;5.70;99.90
27803;DHT22;15182;48.174;11.562;2023-01-25T15:19:22;5.70;99.90
27803;DHT22;15182;48.174;11.562;2023-01-25T15:21:57;5.70;99.90
27803;DHT22;15182;48.174;11.562;2023-01-25T15:24:29;5.70;99.90
27803;DHT22;15182;48.174;11.562;2023-01-25T15:27:02;5.70;99.90
27803;DHT22;15182;48.174;11.562;2023-01-25T15:29:34;5.70;99.90
27803;DHT22;15182;48.174;11.562;2023-01-25T15:32:10;5.70;99.90
27803;DHT22;15182;48.174;11.562;2023-01-25T15:34:46;5.70;99.90
27803;DHT22;15182;48.174;11.562;2023-01-25T15:37:17;5.70;99.90
27803;DHT22;15182;48.174;11.562;2023-01-25T15:39:48;5.70;99.90
27803;DHT22;15182;48.174;11.562;2023-01-25T15:42:19;5.70;99.90
27803;DHT22;15182;48.174;11.562;2023-01-25T15:44:50;5.70;99.90
27803;DHT22;15182;48.174;11.562;2023-01-25T15:47:23;5.70;99.90
27803;DHT22;15182;48.174;11.562;2023-01-25T15:49:55;5.80;99.90
27803;DHT22;15182;48.174;11.562;2023-01-25T15:52:26;5.70;99.90
27803;DHT22;15182;48.174;11.562;2023-01-25T15:54:57;5.70;99.90
27803;DHT22;15182;48.174;11.562;2023-01-25T15:57:30;5.70;99.90
27803;DHT22;15182;48.174;11.562;2023-01-25T16:00:09;5.70;99.90
27803;DHT22;15182;48.174;11.562;2023-01-25T16:02:45;5.70;99.90
27803;DHT22;15182;48.174;11.562;2023-01-25T16:05:19;5.70;99.90
27803;DHT22;15182;48.174;11.562;2023-01-25T16:07:52;5.80;99.90
27803;DHT22;15182;48.174;11.562;2023-01-25T16:10:25;5.80;99.90
27803;DHT22;15182;48.174;11.562;2023-01-25T16:15:34;5.80;99.90
27803;DHT22;15182;48.174;11.562;2023-01-25T16:18:08;5.80;99.90
27803;DHT22;15182;48.174;11.562;2023-01-25T16:20:43;5.80;99.90
27803;DHT22;15182;48.174;11.562;2023-01-25T16:23:14;5.80;99.90
27803;DHT22;15182;48.174;11.562;2023-01-25T16:25:49;5.80;99.90
27803;DHT22;15182;48.174;11.562;2023-01-25T16:28:22;5.80;99.90
27803;DHT22;15182;48.174;11.562;2023-01-25T16:30:55;5.80;99.90
27803;DHT22;15182;48.174;11.562;2023-01-25T16:33:28;5.80;99.90
27803;DHT22;15182;48.174;11.562;2023-01-25T16:36:09;5.80;99.90
27803;DHT22;15182;48.174;11.562;2023-01-25T16:38:43;5.80;99.90
27803;DHT22;15182;48.174;11.562;2023-01-25T16:41:16;5.80;99.90
27803;DHT22;15182;48.174;11.562;2023-01-25T16:43:50;5.80;99.90
27803;DHT22;15182;48.174;11.562;2023-01-25T16:46:24;5.80;99.90
27803;DHT22;15182;48.174;11.562;2023-01-25T16:48:58;5.80;99.90
27803;DHT22;15182;48.174;11.562;2023-01-25T16:51:32;5.80;99.90